Time;durP1;ratioP1;P1;durP2;ratioP2;P2;SDS_P1;SDS_P2;PMS_P1;PMS_P2;Temp;Humidity;BMP_temperature;BMP_pressure;BME280_temperature;BME280_humidity;BME280_pressure;Samples;Min_cycle;Max_cycle;Signal;HPM_P1;HPM_P2
2022/03/02 00:01:30;;;;;;;23.40;12.02;;;;;;;6.23;45.34;101813.28;5061841;28;20047;-82
2022/03/02 00:04:14;;;;;;;12.73;9.05;;;;;;;5.87;45.90;101794.13;5076253;28;20041;-82
2022/03/02 00:06:59;;;;;;;21.17;10.73;;;;;;;6.15;45.79;101802.94;5064342;28;20055;-82
2022/03/02 00:09:44;;;;;;;13.75;8.90;;;;;;;6.20;45.86;101803.00;5076578;28;20277;-83
2022/03/02 00:12:30;;;;;;;24.13;11.80;;;;;;;6.08;45.85;101803.19;5076570;28;20066;-82
2022/03/02 00:15:14;;;;;;;19.63;11.85;;;;;;;6.01;46.29;101802.59;5060482;28;20290;-82
2022/03/02 00:17:59;;;;;;;18.23;8.63;;;;;;;6.02;46.72;101804.22;5069049;28;20543;-83
2022/03/02 00:20:44;;;;;;;17.05;9.63;;;;;;;6.17;46.44;101798.13;5069385;28;20286;-83
2022/03/02 00:23:29;;;;;;;12.40;8.65;;;;;;;6.17;46.38;101801.63;5066541;28;20044;-83
2022/03/02 00:26:14;;;;;;;12.65;8.38;;;;;;;6.00;46.56;101796.38;5063908;28;20114;-83
2022/03/02 00:29:00;;;;;;;15.00;8.10;;;;;;;6.07;46.20;101809.66;5068126;28;20067;-83
2022/03/02 00:31:44;;;;;;;24.00;11.40;;;;;;;5.99;46.64;101807.44;5064056;28;20694;-82
2022/03/02 00:34:29;;;;;;;22.33;9.68;;;;;;;5.95;46.17;101806.31;5067994;28;20047;-82
2022/03/02 00:37:14;;;;;;;13.30;8.32;;;;;;;5.85;46.80;101804.31;5068173;28;20060;-82
2022/03/02 00:40:00;;;;;;;12.43;7.97;;;;;;;5.97;46.60;101810.41;5078464;28;20055;-83
2022/03/02 00:42:45;;;;;;;13.00;8.88;;;;;;;5.98;46.99;101797.72;5064116;28;20056;-83
2022/03/02 00:45:31;;;;;;;19.73;10.77;;;;;;;6.15;46.81;101801.06;5053067;28;20044;-83
2022/03/02 00:48:17;;;;;;;17.25;11.30;;;;;;;6.29;46.19;101801.47;5069825;28;20040;-84
2022/03/02 00:51:03;;;;;;;20.52;11.50;;;;;;;6.23;46.79;101799.78;5063992;28;20048;-84
2022/03/02 00:53:48;;;;;;;14.65;8.30;;;;;;;6.40;47.18;101792.31;5061909;28;20429;-84
2022/03/02 00:56:32;;;;;;;14.15;8.15;;;;;;;6.41;46.76;101788.56;5066632;28;20044;-83
2022/03/02 00:59:18;;;;;;;14.93;8.88;;;;;;;6.53;47.11;101791.88;5064632;28;20064;-85
2022/03/02 01:02:03;;;;;;;18.60;8.68;;;;;;;6.33;47.07;101797.16;5067966;28;20047;-84
2022/03/02 01:04:48;;;;;;;12.75;7.72;;;;;;;6.21;47.58;101783.03;5083018;28;20054;-83
2022/03/02 01:07:33;;;;;;;15.52;9.13;;;;;;;6.29;48.30;101785.25;5077113;28;20051;-84
2022/03/02 01:10:18;;;;;;;15.80;9.90;;;;;;;6.42;48.11;101784.78;5075921;28;20138;-83
2022/03/02 01:13:03;;;;;;;12.00;7.97;;;;;;;6.28;48.50;101779.03;5076527;28;20059;-84
2022/03/02 01:15:48;;;;;;;16.92;8.20;;;;;;;6.26;49.16;101775.75;5082530;28;20051;-84
2022/03/02 01:18:33;;;;;;;15.32;8.27;;;;;;;6.37;48.84;101771.25;5081740;28;20531;-84
2022/03/02 01:21:18;;;;;;;11.85;7.97;;;;;;;6.19;49.50;101768.97;5081724;28;20747;-83
2022/03/02 01:24:03;;;;;;;11.73;8.68;;;;;;;6.00;50.13;101765.84;5082415;28;20051;-84
2022/03/02 01:26:48;;;;;;;13.18;8.98;;;;;;;6.07;49.97;101758.34;5085915;28;20043;-84
2022/03/02 01:29:36;;;;;;;17.70;8.95;;;;;;;6.12;49.20;101761.09;5084128;28;20527;-84
2022/03/02 01:32:21;;;;;;;15.05;10.15;;;;;;;6.14;49.39;101755.44;5081688;28;20056;-83
2022/03/02 01:35:07;;;;;;;12.73;8.63;;;;;;;6.16;49.35;101753.28;5079546;28;20045;-83
2022/03/02 01:37:52;;;;;;;28.95;10.30;;;;;;;6.09;49.71;101758.94;5084567;28;20051;-84
2022/03/02 01:40:37;;;;;;;14.48;8.63;;;;;;;5.95;49.84;101744.22;5085996;28;20044;-83
2022/03/02 01:43:27;;;;;;;20.30;8.85;;;;;;;6.06;49.68;101745.09;5080982;28;20051;-84
2022/03/02 01:46:13;;;;;;;16.55;10.50;;;;;;;5.79;50.11;101747.88;5084893;28;20043;-82
2022/03/02 01:48:58;;;;;;;16.52;10.18;;;;;;;6.10;50.05;101743.50;5079804;28;20045;-82
2022/03/02 01:51:42;;;;;;;11.73;7.90;;;;;;;5.89;48.59;101732.56;5079259;28;20052;-83
2022/03/02 01:54:27;;;;;;;15.05;9.40;;;;;;;5.91;49.37;101730.44;5082988;28;20051;-82
2022/03/02 01:57:13;;;;;;;11.55;8.93;;;;;;;6.05;47.70;101725.41;5079290;28;20052;-82
2022/03/02 01:59:57;;;;;;;20.20;10.38;;;;;;;5.88;47.22;101716.66;5084900;28;20051;-82
2022/03/02 02:02:42;;;;;;;13.05;7.80;;;;;;;6.00;47.28;101718.06;5079649;28;20051;-83
2022/03/02 02:05:27;;;;;;;12.15;7.78;;;;;;;5.88;47.71;101714.78;5067666;28;20444;-82
2022/03/02 02:08:13;;;;;;;11.70;7.05;;;;;;;5.72;48.48;101709.47;5066187;28;20052;-82
2022/03/02 02:10:59;;;;;;;15.25;8.30;;;;;;;5.84;47.21;101715.53;5069053;28;20516;-83
2022/03/02 02:13:44;;;;;;;17.20;9.15;;;;;;;5.84;47.55;101713.59;5078079;28;20511;-83
2022/03/02 02:16:29;;;;;;;21.65;9.15;;;;;;;5.80;47.51;101712.50;5078177;28;20055;-84
2022/03/02 02:19:15;;;;;;;11.85;7.97;;;;;;;5.49;48.48;101710.63;5070145;28;20043;-83
2022/03/02 02:21:59;;;;;;;11.93;7.07;;;;;;;5.69;47.00;101697.31;5079259;28;20048;-84
2022/03/02 02:24:45;;;;;;;14.47;8.97;;;;;;;5.69;47.28;101701.91;5070270;28;20048;-83
2022/03/02 02:27:31;;;;;;;16.42;9.35;;;;;;;5.84;46.21;101696.63;5064478;28;20047;-83
2022/03/02 02:30:16;;;;;;;17.00;9.05;;;;;;;5.88;45.47;101692.38;5068044;28;20626;-83
2022/03/02 02:33:01;;;;;;;15.30;9.00;;;;;;;5.87;45.18;101688.03;5063126;28;20055;-83
2022/03/02 02:35:46;;;;;;;13.38;6.95;;;;;;;5.90;44.99;101688.31;5077847;28;20047;-83
2022/03/02 02:38:31;;;;;;;10.18;6.10;;;;;;;5.62;45.66;101687.81;5067438;28;20052;-83
2022/03/02 02:41:16;;;;;;;11.63;7.50;;;;;;;5.54;45.57;101679.13;5069425;28;20051;-84
2022/03/02 02:44:01;;;;;;;14.10;7.25;;;;;;;5.59;45.55;101672.94;5070886;28;20048;-83
2022/03/02 02:46:45;;;;;;;19.50;11.35;;;;;;;5.82;44.74;101671.78;5070614;28;20039;-83
2022/03/02 02:49:30;;;;;;;12.93;6.65;;;;;;;5.97;44.46;101667.31;5066579;28;20055;-83
2022/03/02 02:52:16;;;;;;;7.93;5.47;;;;;;;5.99;43.70;101672.47;5065129;28;20047;-83
2022/03/02 02:55:00;;;;;;;12.07;6.35;;;;;;;6.01;43.97;101664.91;5068414;28;20420;-83
2022/03/02 02:57:45;;;;;;;11.30;6.03;;;;;;;6.03;43.43;101675.44;5066471;28;20047;-83
2022/03/02 03:00:35;;;;;;;11.75;6.13;;;;;;;5.90;43.81;101668.59;5044719;28;20095;-83
2022/03/02 03:03:20;;;;;;;9.85;7.18;;;;;;;5.81;43.58;101660.16;5061344;28;20035;-83
2022/03/02 03:06:05;;;;;;;10.82;5.85;;;;;;;5.81;43.84;101665.56;5065947;28;20052;-83
2022/03/02 03:08:50;;;;;;;10.70;6.38;;;;;;;5.95;43.24;101655.97;5069926;28;20051;-84
2022/03/02 03:11:41;;;;;;;10.98;9.07;;;;;;;6.04;43.19;101658.19;5066827;28;20123;-84
2022/03/02 03:14:26;;;;;;;12.60;7.72;;;;;;;5.93;42.81;101658.13;5067611;28;20056;-84
2022/03/02 03:17:10;;;;;;;8.50;5.50;;;;;;;5.96;42.58;101645.97;5063581;28;20056;-84
2022/03/02 03:19:55;;;;;;;17.90;7.85;;;;;;;5.98;42.63;101647.34;5068196;28;20043;-83
2022/03/02 03:22:41;;;;;;;13.85;8.07;;;;;;;5.89;42.78;101638.09;5071055;28;20059;-83
2022/03/02 03:25:28;;;;;;;15.55;7.85;;;;;;;5.91;42.64;101637.84;5078843;28;20044;-83
2022/03/02 03:28:13;;;;;;;12.93;7.88;;;;;;;5.85;41.46;101636.16;5062034;28;20055;-83
2022/03/02 03:30:58;;;;;;;8.93;6.28;;;;;;;5.26;42.86;101641.69;5058596;28;20043;-84
2022/03/02 03:33:43;;;;;;;12.65;6.40;;;;;;;4.70;44.30;101648.41;5050086;28;20453;-84
2022/03/02 03:36:28;;;;;;;13.40;6.82;;;;;;;3.85;46.79;101649.78;5078375;28;20424;-84
2022/03/02 03:39:13;;;;;;;17.48;10.30;;;;;;;4.60;44.38;101657.19;5078592;28;20412;-83
2022/03/02 03:41:57;;;;;;;11.15;6.72;;;;;;;4.87;45.83;101661.81;5066883;28;20041;-84
2022/03/02 03:44:42;;;;;;;13.90;6.68;;;;;;;4.67;46.17;101652.41;5057021;28;20102;-83
2022/03/02 03:47:27;;;;;;;11.82;6.55;;;;;;;5.07;44.81;101649.34;5076052;28;20048;-83
2022/03/02 03:50:13;;;;;;;15.27;8.43;;;;;;;5.12;44.32;101649.38;5069756;28;20561;-83
2022/03/02 03:52:57;;;;;;;13.02;7.45;;;;;;;4.81;45.13;101647.47;5063697;28;20056;-83
2022/03/02 03:55:42;;;;;;;12.50;6.78;;;;;;;4.30;45.59;101648.75;5078174;28;20047;-85
2022/03/02 03:58:27;;;;;;;10.27;6.30;;;;;;;3.90;46.47;101659.00;5065251;28;20056;-84
2022/03/02 04:01:12;;;;;;;10.52;6.93;;;;;;;3.54;47.70;101657.63;5067884;28;20040;-84
2022/03/02 04:03:57;;;;;;;12.13;6.78;;;;;;;4.20;46.21;101649.44;5069632;28;20040;-85
2022/03/02 04:06:42;;;;;;;9.32;6.13;;;;;;;4.51;46.51;101649.81;5064946;28;20416;-85
2022/03/02 04:09:27;;;;;;;19.60;7.78;;;;;;;4.47;45.51;101651.41;5068961;28;20047;-85
2022/03/02 04:12:12;;;;;;;12.37;6.97;;;;;;;3.94;47.90;101655.56;5077861;28;20043;-83
2022/03/02 04:14:57;;;;;;;10.60;6.97;;;;;;;3.73;49.77;101664.38;5067686;28;20055;-84
2022/03/02 04:17:42;;;;;;;19.90;8.02;;;;;;;2.16;54.71;101653.50;5068363;28;20059;-84
2022/03/02 04:20:26;;;;;;;14.48;8.40;;;;;;;1.72;57.05;101644.22;5068236;28;20043;-85
2022/03/02 04:23:11;;;;;;;12.10;7.88;;;;;;;2.11;56.15;101624.69;5062688;28;20048;-84
2022/03/02 04:25:56;;;;;;;17.85;9.45;;;;;;;1.88;57.74;101610.53;5068412;28;20039;-83
2022/03/02 04:28:41;;;;;;;27.98;8.55;;;;;;;2.28;56.31;101614.03;5066294;28;20055;-84
2022/03/02 04:31:27;;;;;;;15.90;8.15;;;;;;;2.49;56.44;101613.34;5066224;28;20052;-84
2022/03/02 04:34:12;;;;;;;17.20;11.07;;;;;;;3.19;54.14;101604.94;5076548;28;20048;-84
2022/03/02 04:36:58;;;;;;;;;;;;;;;3.28;53.95;101610.72;5066997;28;20490;-83
2022/03/02 04:39:43;;;;;;;11.68;7.72;;;;;;;3.42;52.70;101606.63;5067870;28;19913;-82
2022/03/02 04:42:28;;;;;;;17.27;8.98;;;;;;;3.27;53.35;101604.53;5074971;28;20043;-82
2022/03/02 04:45:13;;;;;;;15.88;9.35;;;;;;;3.37;52.92;101622.69;5066223;28;20048;-84
2022/03/02 04:47:59;;;;;;;17.92;10.55;;;;;;;3.40;53.52;101632.97;5064559;28;20043;-84
2022/03/02 04:50:44;;;;;;;17.25;12.07;;;;;;;2.95;55.18;101636.50;5076660;28;20048;-84
2022/03/02 04:53:28;;;;;;;19.60;9.60;;;;;;;3.49;53.54;101636.06;5061375;28;20044;-84
2022/03/02 04:56:13;;;;;;;13.45;8.60;;;;;;;3.78;52.88;101630.31;5067497;28;20048;-84
2022/03/02 04:58:58;;;;;;;16.70;9.63;;;;;;;3.79;52.22;101636.50;5076114;28;20416;-84
2022/03/02 05:01:43;;;;;;;17.23;8.95;;;;;;;3.24;52.56;101633.78;5079408;28;20055;-83
2022/03/02 05:04:28;;;;;;;18.67;8.40;;;;;;;2.59;53.80;101628.88;5090848;22;20023;-82
2022/03/02 05:07:13;;;;;;;;;;;;;;;2.27;55.28;101625.81;5082491;28;20289;-83
2022/03/02 05:09:57;;;;;;;20.83;12.30;;;;;;;2.45;55.00;101633.69;5078598;28;19912;-83
2022/03/02 05:12:43;;;;;;;15.27;9.32;;;;;;;2.30;55.49;101619.97;5078832;28;20500;-82
2022/03/02 05:15:28;;;;;;;29.15;11.40;;;;;;;2.41;54.84;101623.66;5082200;28;20047;-82
2022/03/02 05:18:12;;;;;;;;;;;;;;;2.46;54.24;101629.97;5077868;28;20050;-82
2022/03/02 05:20:57;;;;;;;17.05;10.65;;;;;;;2.94;52.71;101626.84;5074423;28;19912;-82
2022/03/02 05:23:42;;;;;;;12.38;7.95;;;;;;;2.78;52.64;101629.47;5087363;28;20043;-81
2022/03/02 05:26:26;;;;;;;11.35;7.25;;;;;;;2.63;53.07;101630.03;5077152;28;20047;-82
2022/03/02 05:29:11;;;;;;;16.17;8.38;;;;;;;2.33;53.97;101619.50;5079228;28;20047;-82
2022/03/02 05:31:56;;;;;;;15.95;8.52;;;;;;;2.70;53.82;101619.09;5087277;28;20050;-83
2022/03/02 05:34:41;;;;;;;17.83;8.38;;;;;;;2.65;52.99;101619.84;5095741;28;20440;-82
2022/03/02 05:37:26;;;;;;;19.27;10.65;;;;;;;2.48;53.33;101616.31;5070999;28;20050;-83
2022/03/02 05:40:15;;;;;;;23.08;8.85;;;;;;;2.33;53.29;101611.47;5075197;28;20048;-82
2022/03/02 05:43:00;;;;;;;27.83;11.95;;;;;;;2.02;54.29;101606.53;5095788;28;20047;-83
2022/03/02 05:45:45;;;;;;;14.20;9.13;;;;;;;1.95;54.79;101613.88;5083614;28;20043;-84
2022/03/02 05:48:30;;;;;;;21.27;9.80;;;;;;;2.08;54.29;101616.31;5095478;28;20051;-84
2022/03/02 05:51:15;;;;;;;15.82;8.32;;;;;;;2.37;53.91;101612.59;5079478;28;20460;-83
2022/03/02 05:54:00;;;;;;;18.05;10.05;;;;;;;2.44;53.20;101624.00;5079609;28;20154;-82
2022/03/02 05:56:45;;;;;;;20.75;11.13;;;;;;;2.78;52.65;101613.38;5074038;28;20424;-82
2022/03/02 05:59:30;;;;;;;23.33;9.38;;;;;;;2.95;52.26;101614.19;5083911;28;20581;-82
2022/03/02 06:02:15;;;;;;;17.67;8.88;;;;;;;2.96;52.37;101615.81;5078747;28;20536;-81
2022/03/02 06:05:00;;;;;;;13.52;7.95;;;;;;;2.75;53.07;101624.56;5079711;28;20051;-81
2022/03/02 06:07:45;;;;;;;18.83;10.23;;;;;;;2.62;52.92;101616.81;5075236;28;20056;-81
2022/03/02 06:10:30;;;;;;;17.02;8.57;;;;;;;2.80;52.52;101620.13;5075478;28;20059;-80
2022/03/02 06:13:15;;;;;;;19.95;8.57;;;;;;;2.92;52.59;101615.50;5081161;28;20051;-81
2022/03/02 06:16:01;;;;;;;18.35;10.18;;;;;;;3.08;51.67;101611.22;5081800;28;20412;-81
2022/03/02 06:18:46;;;;;;;35.72;14.10;;;;;;;3.40;51.96;101609.56;5077895;28;20421;-79
2022/03/02 06:21:32;;;;;;;29.80;10.73;;;;;;;3.68;51.80;101613.22;5086804;28;20520;-81
2022/03/02 06:24:17;;;;;;;23.10;11.82;;;;;;;5.60;46.55;101616.03;5064609;28;20040;-83
2022/03/02 06:27:02;;;;;;;22.90;11.05;;;;;;;7.99;40.59;101620.84;5075707;28;20032;-80
2022/03/02 06:29:48;;;;;;;24.88;12.38;;;;;;;8.96;37.63;101619.28;5069081;28;20424;-82
2022/03/02 06:32:34;;;;;;;20.70;12.00;;;;;;;10.54;34.41;101610.34;5081308;28;20040;-81
2022/03/02 06:35:19;;;;;;;41.13;13.88;;;;;;;11.60;32.87;101619.56;5086211;28;20081;-83
2022/03/02 06:38:04;;;;;;;29.50;12.88;;;;;;;11.55;32.14;101627.84;5078788;28;20044;-82
2022/03/02 06:41:28;;;;;;;24.67;10.93;;;;;;;12.24;30.57;101624.06;5076554;28;20040;-82
2022/03/02 06:44:31;;;;;;;23.08;12.75;;;;;;;9.72;34.53;101615.09;5081126;28;20079;-82
2022/03/02 06:47:21;;;;;;;27.85;11.60;;;;;;;7.52;39.29;101615.78;5070930;28;20047;-81
2022/03/02 06:50:11;;;;;;;25.83;13.27;;;;;;;6.86;41.29;101606.84;5061183;28;20037;-80
2022/03/02 06:53:01;;;;;;;27.70;13.73;;;;;;;5.92;43.85;101610.59;5070084;28;20040;-81
2022/03/02 06:55:46;;;;;;;34.13;12.73;;;;;;;4.88;47.49;101612.22;5075820;28;20405;-81
2022/03/02 06:58:41;;;;;;;25.15;11.55;;;;;;;5.11;46.71;101617.28;5076864;28;20044;-83
2022/03/02 07:01:29;;;;;;;32.25;13.32;;;;;;;4.47;48.57;101616.38;5079564;28;20519;-82
2022/03/02 07:04:15;;;;;;;27.67;13.43;;;;;;;4.37;49.32;101608.19;5069610;28;20047;-82
2022/03/02 07:07:02;;;;;;;35.00;16.02;;;;;;;5.15;48.11;101618.41;5060042;28;20036;-82
2022/03/02 07:09:47;;;;;;;28.80;15.68;;;;;;;4.69;49.18;101611.75;5058358;28;20044;-80
2022/03/02 07:12:32;;;;;;;25.23;12.43;;;;;;;4.74;48.76;101612.63;5061774;28;20040;-82
2022/03/02 07:15:16;;;;;;;26.25;12.77;;;;;;;4.70;49.25;101616.09;5059648;28;20413;-82
2022/03/02 07:18:03;;;;;;;35.70;12.90;;;;;;;4.89;48.82;101609.28;5058359;28;20060;-81
2022/03/02 07:20:51;;;;;;;30.60;16.33;;;;;;;4.84;49.26;101608.41;5062391;28;20040;-83
2022/03/02 07:23:41;;;;;;;39.45;15.00;;;;;;;5.14;48.82;101617.56;5059122;28;20041;-82
2022/03/02 07:26:28;;;;;;;30.75;13.07;;;;;;;5.45;47.59;101618.63;5058100;28;20032;-83
2022/03/02 07:29:15;;;;;;;37.65;15.65;;;;;;;5.37;47.56;101615.63;5061692;28;20051;-82
2022/03/02 07:32:00;;;;;;;25.08;14.32;;;;;;;4.96;48.24;101631.44;5072733;28;20032;-81
2022/03/02 07:34:46;;;;;;;30.38;12.52;;;;;;;5.23;47.55;101622.53;5072753;28;20048;-83
2022/03/02 07:37:32;;;;;;;26.75;13.15;;;;;;;5.29;47.35;101622.28;5072618;28;20052;-82
2022/03/02 07:40:16;;;;;;;;;;;;;;;5.18;47.40;101626.78;5060023;28;20044;-82
2022/03/02 07:43:01;;;;;;;30.77;13.77;;;;;;;5.45;46.40;101615.13;5057587;28;20332;-83
2022/03/02 07:45:46;;;;;;;16.42;10.57;;;;;;;5.38;46.14;101615.38;5059436;28;20036;-82
2022/03/02 07:48:31;;;;;;;26.83;12.68;;;;;;;5.75;46.01;101617.22;5072459;28;20489;-82
2022/03/02 07:51:17;;;;;;;28.88;14.18;;;;;;;5.85;44.84;101619.97;5072412;28;20047;-82
2022/03/02 07:54:03;;;;;;;;;;;;;;;5.87;45.12;101623.25;5061422;28;20052;-79
2022/03/02 07:56:50;;;;;;;17.10;10.65;;;;;;;6.10;44.58;101613.91;5059850;28;19917;-80
2022/03/02 07:59:38;;;;;;;31.55;12.45;;;;;;;5.68;46.36;101622.84;5057624;28;20043;-82
2022/03/02 08:02:24;;;;;;;22.40;13.00;;;;;;;5.46;46.32;101617.56;5072506;28;20040;-80
2022/03/02 08:05:12;;;;;;;25.17;12.77;;;;;;;6.14;45.43;101609.63;5058920;28;20413;-82
2022/03/02 08:07:59;;;;;;;25.95;12.48;;;;;;;6.36;44.36;101613.75;5071989;28;20040;-82
2022/03/02 08:10:45;;;;;;;26.73;13.60;;;;;;;6.42;44.13;101609.19;5072121;28;20409;-82
2022/03/02 08:13:32;;;;;;;31.48;14.27;;;;;;;6.20;44.75;101606.66;5072169;28;20055;-80
2022/03/02 08:16:17;;;;;;;23.42;12.48;;;;;;;6.18;45.41;101610.72;5057386;28;20041;-81
2022/03/02 08:19:04;;;;;;;21.77;11.95;;;;;;;6.15;45.90;101617.44;5072244;28;20049;-83
2022/03/02 08:22:04;;;;;;;35.70;15.30;;;;;;;6.41;44.31;101615.66;5059426;28;20043;-82
2022/03/02 08:25:10;;;;;;;23.88;13.75;;;;;;;6.15;44.93;101601.25;5056776;28;20048;-83
2022/03/02 08:27:57;;;;;;;32.85;13.52;;;;;;;5.94;45.81;101605.75;5072350;28;20040;-83
2022/03/02 08:30:44;;;;;;;24.10;13.15;;;;;;;6.21;45.66;101592.09;5058761;28;20501;-82
2022/03/02 08:33:34;;;;;;;29.27;13.95;;;;;;;6.41;45.09;101602.16;5061455;28;20040;-82
2022/03/02 08:36:22;;;;;;;23.08;13.85;;;;;;;6.03;45.80;101603.38;5057201;28;20044;-82
2022/03/02 08:39:10;;;;;;;24.25;13.60;;;;;;;6.45;45.71;101600.53;5057442;28;20051;-81
2022/03/02 08:41:55;;;;;;;29.67;13.25;;;;;;;6.39;45.27;101596.22;5061344;28;20040;-80
2022/03/02 08:44:40;;;;;;;22.83;11.13;;;;;;;6.46;45.11;101591.38;5058689;28;20044;-82
2022/03/02 08:47:25;;;;;;;21.23;10.43;;;;;;;6.75;44.29;101594.41;5057459;28;20266;-82
2022/03/02 08:50:10;;;;;;;19.45;10.70;;;;;;;6.74;44.02;101590.09;5061187;28;20043;-81
2022/03/02 08:52:57;;;;;;;22.10;9.43;;;;;;;6.79;43.88;101587.38;5059563;28;20040;-82
2022/03/02 08:55:43;;;;;;;24.48;13.10;;;;;;;6.85;43.77;101587.13;5057023;28;20051;-81
2022/03/02 08:58:28;;;;;;;21.42;12.85;;;;;;;7.26;42.89;101589.84;5061452;28;20071;-82
2022/03/02 09:01:14;;;;;;;18.90;10.60;;;;;;;7.26;42.53;101595.25;5066007;28;20044;-85
2022/03/02 09:04:01;;;;;;;22.65;13.05;;;;;;;7.06;43.88;101587.16;5061876;28;20036;-80
2022/03/02 09:06:46;;;;;;;32.60;13.10;;;;;;;7.15;44.10;101578.22;5068768;28;20036;-79
2022/03/02 09:09:32;;;;;;;20.95;11.35;;;;;;;7.21;44.01;101576.34;5078325;28;20044;-82
2022/03/02 09:12:18;;;;;;;52.50;13.93;;;;;;;7.32;43.92;101575.22;5077337;28;20048;-84
2022/03/02 09:15:02;;;;;;;;;;;;;;;7.45;43.47;101580.09;5091994;28;20039;-81
2022/03/02 09:17:47;;;;;;;28.50;13.35;;;;;;;7.57;43.21;101571.66;5079734;28;19916;-81
2022/03/02 09:20:33;;;;;;;19.80;10.43;;;;;;;7.41;43.90;101570.09;5091966;28;20051;-82
2022/03/02 09:23:18;;;;;;;26.50;13.77;;;;;;;7.59;43.28;101570.31;5088140;28;20051;-81
2022/03/02 09:26:05;;;;;;;;;;;;;;;7.43;43.25;101573.31;5074474;28;20048;-80
2022/03/02 09:28:51;;;;;;;23.40;13.40;;;;;;;7.71;42.84;101576.25;5071811;28;19924;-78
2022/03/02 09:31:37;;;;;;;37.67;15.25;;;;;;;7.85;45.26;101570.25;5086568;28;20063;-80
2022/03/02 09:34:25;;;;;;;36.97;13.80;;;;;;;8.98;47.01;101573.72;5084107;28;20468;-80
2022/03/02 09:37:12;;;;;;;29.42;13.70;;;;;;;9.25;40.61;101565.06;5069025;28;20045;-81
2022/03/02 09:39:59;;;;;;;36.53;17.77;;;;;;;8.52;41.67;101565.09;5083169;28;20059;-79
2022/03/02 09:42:54;;;;;;;32.10;18.92;;;;;;;8.90;43.55;101565.34;5077058;28;20103;-80
2022/03/02 09:45:42;;;;;;;37.22;16.63;;;;;;;9.53;41.24;101568.88;5071582;28;20044;-80
2022/03/02 09:48:33;;;;;;;36.88;14.95;;;;;;;9.82;41.37;101571.53;5089033;28;20043;-79
2022/03/02 09:51:23;;;;;;;27.67;14.88;;;;;;;9.12;39.87;101557.59;5079146;28;20048;-78
2022/03/02 09:54:09;;;;;;;29.42;13.77;;;;;;;9.42;41.22;101551.88;5090493;28;20039;-79
2022/03/02 09:56:55;;;;;;;24.95;14.38;;;;;;;9.16;41.03;101558.63;5071482;28;20052;-78
2022/03/02 09:59:40;;;;;;;27.38;14.70;;;;;;;9.50;41.59;101549.66;5076010;28;20404;-79
2022/03/02 10:02:36;;;;;;;20.77;11.55;;;;;;;8.77;42.47;101541.59;5079470;28;20416;-79
2022/03/02 10:05:29;;;;;;;24.13;13.30;;;;;;;9.09;42.17;101541.91;5068053;28;20041;-79
2022/03/02 10:08:18;;;;;;;27.48;12.38;;;;;;;9.74;40.78;101537.69;5073547;28;20047;-77
2022/03/02 10:11:06;;;;;;;21.23;11.52;;;;;;;10.14;38.32;101536.38;5058706;28;20048;-77
2022/03/02 10:13:56;;;;;;;22.48;11.57;;;;;;;9.22;40.19;101530.38;5061989;28;20044;-78
2022/03/02 10:16:47;;;;;;;24.08;12.30;;;;;;;9.31;38.67;101525.13;5060485;28;20049;-79
2022/03/02 10:19:35;;;;;;;31.42;13.32;;;;;;;10.08;38.68;101528.56;5068147;28;20047;-78
2022/03/02 10:22:29;;;;;;;19.67;11.80;;;;;;;10.47;38.94;101522.88;5080702;28;20040;-78
2022/03/02 10:25:17;;;;;;;25.33;14.45;;;;;;;10.47;39.38;101518.25;5081120;28;20041;-78
2022/03/02 10:28:06;;;;;;;21.20;12.68;;;;;;;10.47;40.04;101515.53;5063400;28;20066;-76
2022/03/02 10:31:17;;;;;;;25.35;12.50;;;;;;;10.52;39.11;101507.31;5074179;28;20408;-78
2022/03/02 10:34:27;;;;;;;22.55;13.45;;;;;;;10.54;38.82;101512.47;5078979;28;20032;-78
2022/03/02 10:37:21;;;;;;;21.20;12.93;;;;;;;10.69;38.47;101499.44;5060620;28;20053;-78
2022/03/02 10:40:09;;;;;;;23.48;12.65;;;;;;;10.73;38.34;101500.44;5063528;28;20040;-77
2022/03/02 10:42:58;;;;;;;24.20;13.00;;;;;;;10.82;38.93;101497.84;5063155;28;20686;-78
2022/03/02 10:45:49;;;;;;;22.88;12.40;;;;;;;10.96;38.43;101493.28;5074378;28;20436;-76
2022/03/02 10:48:44;;;;;;;23.75;12.93;;;;;;;11.31;37.52;101482.84;5064047;28;20042;-78
2022/03/02 10:51:31;;;;;;;17.42;11.02;;;;;;;11.39;35.89;101480.22;5065055;28;20521;-82
2022/03/02 10:54:20;;;;;;;32.38;15.48;;;;;;;10.97;36.55;101473.09;5067343;28;20048;-81
2022/03/02 10:57:08;;;;;;;25.77;15.75;;;;;;;10.59;37.71;101466.16;5077465;28;20036;-79
2022/03/02 10:59:55;;;;;;;21.05;14.35;;;;;;;10.49;37.06;101469.84;5072284;28;20431;-80
2022/03/02 11:02:42;;;;;;;22.52;13.45;;;;;;;10.38;37.91;101464.84;5071152;28;20036;-81
2022/03/02 11:05:30;;;;;;;22.67;14.88;;;;;;;10.29;37.82;101454.66;5076077;28;20048;-80
2022/03/02 11:08:15;;;;;;;25.52;13.38;;;;;;;10.31;37.47;101450.84;5077907;28;20036;-79
2022/03/02 11:11:01;;;;;;;17.60;10.55;;;;;;;10.68;36.75;101456.19;5082372;28;20040;-81
2022/03/02 11:13:47;;;;;;;26.58;13.38;;;;;;;10.45;37.50;101443.53;5104827;22;20037;-75
2022/03/02 11:16:31;;;;;;;37.92;15.05;;;;;;;10.41;38.19;101442.53;5088442;28;20047;-75
2022/03/02 11:19:16;;;;;;;19.77;11.80;;;;;;;10.57;38.31;101436.53;5076504;28;20044;-74
2022/03/02 11:22:01;;;;;;;18.08;10.98;;;;;;;10.47;38.09;101431.25;5081788;28;20044;-75
2022/03/02 11:24:47;;;;;;;20.63;10.90;;;;;;;10.46;38.01;101423.41;5073237;28;20040;-75
2022/03/02 11:27:41;;;;;;;23.67;13.00;;;;;;;10.58;37.59;101418.28;5059083;28;20036;-75
2022/03/02 11:30:26;;;;;;;20.48;14.63;;;;;;;10.53;37.49;101410.22;5085130;28;20031;-75
2022/03/02 11:33:11;;;;;;;19.00;11.57;;;;;;;10.49;38.04;101401.06;5087839;28;20044;-74
2022/03/02 11:36:16;;;;;;;20.27;10.60;;;;;;;10.63;38.22;101399.97;5073219;28;20041;-76
2022/03/02 11:39:02;;;;;;;21.15;13.95;;;;;;;10.78;38.34;101396.19;5100841;28;20036;-74
2022/03/02 11:41:53;;;;;;;21.55;13.40;;;;;;;10.82;37.87;101388.25;5096998;28;20048;-74
2022/03/02 11:44:41;;;;;;;34.45;14.05;;;;;;;10.91;38.00;101376.38;5081047;28;20036;-76
2022/03/02 11:47:35;;;;;;;27.52;13.45;;;;;;;11.29;37.61;101365.25;5078339;28;20032;-75
2022/03/02 11:50:20;;;;;;;26.73;13.48;;;;;;;11.45;37.35;101359.19;5093131;28;20048;-76
2022/03/02 11:53:08;;;;;;;20.35;10.38;;;;;;;11.65;36.05;101348.97;5087080;28;20040;-74
2022/03/02 11:55:55;;;;;;;30.15;13.55;;;;;;;11.71;36.21;101343.09;5080972;28;20041;-75
2022/03/02 11:58:58;;;;;;;20.58;12.80;;;;;;;11.81;36.51;101348.34;5089213;28;20032;-75
2022/03/02 12:01:53;;;;;;;23.15;13.13;;;;;;;11.94;36.74;101335.78;5091640;28;20483;-76
2022/03/02 12:04:58;;;;;;;19.58;12.93;;;;;;;12.09;35.17;101332.69;5098602;28;20035;-75
2022/03/02 12:07:46;;;;;;;;;;;;;;;12.07;34.36;101329.47;5072119;28;20033;-73
2022/03/02 12:10:34;;;;;;;24.40;12.95;;;;;;;12.13;34.76;101320.06;5072556;28;19912;-75
2022/03/02 12:13:20;;;;;;;21.40;12.45;;;;;;;12.14;34.67;101312.69;5073247;28;20036;-74
2022/03/02 12:16:05;;;;;;;18.70;11.05;;;;;;;12.13;35.70;101309.16;5095439;28;20032;-76
2022/03/02 12:18:52;;;;;;;20.25;13.35;;;;;;;12.09;36.06;101301.91;5090276;28;20065;-75
2022/03/02 12:21:37;;;;;;;23.90;12.77;;;;;;;12.50;34.08;101301.66;5098433;28;20052;-75
2022/03/02 12:24:49;;;;;;;15.95;10.40;;;;;;;12.60;33.70;101288.53;5082684;28;20040;-75
2022/03/02 12:27:35;;;;;;;19.13;11.05;;;;;;;12.72;33.43;101280.56;5095350;28;20446;-74
2022/03/02 12:30:20;;;;;;;32.08;12.77;;;;;;;12.74;33.84;101280.25;5088841;28;20059;-74
2022/03/02 12:33:28;;;;;;;15.80;10.98;;;;;;;12.70;33.11;101269.16;5092872;28;20040;-75
2022/03/02 12:36:16;;;;;;;23.05;11.30;;;;;;;13.01;32.20;101257.34;5091143;28;20483;-74
2022/03/02 12:39:08;;;;;;;;;;;;;;;13.11;32.09;101259.78;5092073;28;20040;-75
2022/03/02 12:41:54;;;;;;;16.83;10.88;;;;;;;13.17;32.00;101255.81;5082741;28;19917;-74
2022/03/02 12:44:42;;;;;;;14.40;8.52;;;;;;;13.40;30.17;101248.31;5085859;28;20045;-75
2022/03/02 12:47:31;;;;;;;19.00;10.60;;;;;;;13.56;29.53;101252.94;5086343;28;20048;-75
2022/03/02 12:50:19;;;;;;;17.88;11.15;;;;;;;13.69;29.80;101252.00;5084023;28;20040;-75
2022/03/02 12:53:04;;;;;;;15.70;9.68;;;;;;;13.72;30.20;101245.06;5092677;28;20048;-74